Time;durP1;ratioP1;P1;durP2;ratioP2;P2;SDS_P1;SDS_P2;PMS_P1;PMS_P2;Temp;Humidity;BMP_temperature;BMP_pressure;BME280_temperature;BME280_humidity;BME280_pressure;Samples;Min_cycle;Max_cycle;Signal;HPM_P1;HPM_P2
2023/07/16 00:00:04;;;;;;;;;;;;;;;25.82;100.00;99552.88;5071384;28;19978;-78
2023/07/16 00:02:31;;;;;;;;;;;;;;;25.80;100.00;99547.72;5070309;28;19959;-78
2023/07/16 00:04:57;;;;;;;;;;;;;;;25.79;100.00;99537.16;5071148;28;19955;-78
2023/07/16 00:07:22;;;;;;;;;;;;;;;25.77;100.00;99533.88;5071306;28;19920;-79
2023/07/16 00:09:47;;;;;;;;;;;;;;;25.73;100.00;99538.13;5070112;28;19916;-78
2023/07/16 00:12:13;;;;;;;;;;;;;;;25.69;100.00;99533.19;5071088;28;19994;-77
2023/07/16 00:14:38;;;;;;;;;;;;;;;25.69;100.00;99533.19;5071533;28;19924;-76
2023/07/16 00:17:04;;;;;;;;;;;;;;;25.70;100.00;99534.00;5071057;28;19916;-77
2023/07/16 00:19:29;;;;;;;;;;;;;;;25.66;100.00;99533.69;5069711;28;19916;-77
2023/07/16 00:21:54;;;;;;;;;;;;;;;25.60;100.00;99529.25;5053645;28;19999;-77
2023/07/16 00:24:20;;;;;;;;;;;;;;;25.48;100.00;99527.59;5071235;28;19920;-77
2023/07/16 00:26:45;;;;;;;;;;;;;;;25.45;100.00;99526.19;5071083;28;20007;-78
2023/07/16 00:29:11;;;;;;;;;;;;;;;25.43;100.00;99528.34;5070763;28;19916;-78
2023/07/16 00:31:36;;;;;;;;;;;;;;;25.44;100.00;99527.28;5071320;28;19943;-78
2023/07/16 00:34:02;;;;;;;;;;;;;;;25.41;100.00;99535.84;5069210;28;19916;-78
2023/07/16 00:36:27;;;;;;;;;;;;;;;25.00;100.00;99544.97;5071104;28;20054;-78
2023/07/16 00:38:53;;;;;;;;;;;;;;;24.83;100.00;99539.44;5070798;28;19917;-78
2023/07/16 00:41:19;;;;;;;;;;;;;;;24.77;100.00;99547.66;5070874;28;19916;-77
2023/07/16 00:43:44;;;;;;;;;;;;;;;24.67;100.00;99547.44;5071004;28;19999;-78
2023/07/16 00:46:11;;;;;;;;;;;;;;;24.57;100.00;99545.28;5070532;28;19923;-77
2023/07/16 00:48:36;;;;;;;;;;;;;;;24.67;100.00;99540.16;5071060;28;19973;-77
2023/07/16 00:51:02;;;;;;;;;;;;;;;24.53;100.00;99549.53;5070296;28;19920;-78
2023/07/16 00:53:28;;;;;;;;;;;;;;;24.31;100.00;99540.34;5070847;28;19912;-79
2023/07/16 00:55:54;;;;;;;;;;;;;;;24.46;100.00;99543.41;5070309;28;20268;-77
2023/07/16 00:58:19;;;;;;;;;;;;;;;24.49;100.00;99542.97;5068543;28;19920;-78
2023/07/16 01:00:45;;;;;;;;;;;;;;;24.50;100.00;99543.78;5068495;28;19927;-78
2023/07/16 01:03:12;;;;;;;;;;;;;;;24.55;100.00;99535.81;5068035;28;19921;-76
2023/07/16 01:05:37;;;;;;;;;;;;;;;24.49;100.00;99532.16;5069960;28;20291;-77
2023/07/16 01:08:06;;;;;;;;;;;;;;;24.45;100.00;99536.38;5070449;28;19969;-77
2023/07/16 01:10:32;;;;;;;;;;;;;;;24.44;100.00;99526.66;5070917;28;20326;-77
2023/07/16 01:12:58;;;;;;;;;;;;;;;24.41;100.00;99529.81;5070130;28;19917;-78
2023/07/16 01:15:24;;;;;;;;;;;;;;;24.28;100.00;99524.63;5070947;28;19923;-79
2023/07/16 01:17:50;;;;;;;;;;;;;;;24.31;100.00;99525.00;5070949;28;20118;-78
2023/07/16 01:20:15;;;;;;;;;;;;;;;24.33;100.00;99522.03;5070444;28;20364;-78
2023/07/16 01:22:47;;;;;;;;;;;;;;;24.29;100.00;99527.09;5070798;28;19916;-77
2023/07/16 01:25:13;;;;;;;;;;;;;;;24.36;100.00;99522.41;5069174;28;19934;-77
2023/07/16 01:27:45;;;;;;;;;;;;;;;24.43;100.00;99522.31;5070342;28;19924;-76
2023/07/16 01:30:11;;;;;;;;;;;;;;;24.41;100.00;99514.44;5070623;28;20299;-77
2023/07/16 01:32:37;;;;;;;;;;;;;;;24.39;100.00;99521.13;5069545;28;20336;-78
2023/07/16 01:35:04;;;;;;;;;;;;;;;24.46;100.00;99516.44;5070420;28;19916;-77
2023/07/16 01:37:30;;;;;;;;;;;;;;;24.37;100.00;99518.66;5068971;28;19916;-77
2023/07/16 01:39:55;;;;;;;;;;;;;;;24.03;100.00;99512.09;5069875;28;19916;-78
2023/07/16 01:42:21;;;;;;;;;;;;;;;24.17;100.00;99511.91;5069943;28;19916;-78
2023/07/16 01:44:46;;;;;;;;;;;;;;;24.23;100.00;99511.84;5070821;28;19959;-79
2023/07/16 01:47:22;;;;;;;;;;;;;;;24.32;100.00;99515.03;5068938;28;19920;-79
2023/07/16 01:49:48;;;;;;;;;;;;;;;24.38;100.00;99514.94;5066647;28;19916;-79
2023/07/16 01:52:13;;;;;;;;;;;;;;;24.43;100.00;99516.91;5070033;28;19927;-78
2023/07/16 01:54:39;;;;;;;;;;;;;;;24.39;100.00;99508.44;5070317;28;19977;-79
2023/07/16 01:57:04;;;;;;;;;;;;;;;24.40;100.00;99511.97;5069736;28;20379;-78
2023/07/16 01:59:30;;;;;;;;;;;;;;;24.36;100.00;99506.25;5069146;28;19916;-77
2023/07/16 02:01:55;;;;;;;;;;;;;;;24.36;100.00;99505.41;5070100;28;19952;-78
2023/07/16 02:04:22;;;;;;;;;;;;;;;24.34;100.00;99507.50;5069373;28;20390;-78
2023/07/16 02:06:47;;;;;;;;;;;;;;;24.34;100.00;99510.22;5069175;28;19999;-76
2023/07/16 02:09:17;;;;;;;;;;;;;;;24.32;100.00;99498.84;5066603;28;19969;-77
2023/07/16 02:11:43;;;;;;;;;;;;;;;24.30;100.00;99504.47;5069915;28;19992;-77
2023/07/16 02:14:08;;;;;;;;;;;;;;;24.28;100.00;99498.47;5067906;28;20061;-78
2023/07/16 02:16:34;;;;;;;;;;;;;;;24.25;100.00;99498.13;5052438;28;20010;-77
2023/07/16 02:18:59;;;;;;;;;;;;;;;24.20;100.00;99498.00;5072368;28;20224;-77
2023/07/16 02:21:25;;;;;;;;;;;;;;;24.18;100.00;99503.63;5068426;28;20437;-76
2023/07/16 02:23:50;;;;;;;;;;;;;;;24.15;100.00;99498.66;5073596;28;19917;-77
2023/07/16 02:26:16;;;;;;;;;;;;;;;24.11;100.00;99502.06;5073560;28;19920;-76
2023/07/16 02:28:42;;;;;;;;;;;;;;;24.08;100.00;99504.19;5070026;28;19923;-77
2023/07/16 02:31:07;;;;;;;;;;;;;;;24.11;100.00;99504.75;5073216;28;20023;-76
2023/07/16 02:33:33;;;;;;;;;;;;;;;23.98;100.00;99508.47;5074044;28;19947;-77
2023/07/16 02:35:58;;;;;;;;;;;;;;;23.85;100.00;99504.13;5073797;28;20057;-77
2023/07/16 02:38:23;;;;;;;;;;;;;;;23.76;100.00;99497.41;5064374;28;19924;-75
2023/07/16 02:40:49;;;;;;;;;;;;;;;23.72;100.00;99509.69;5073211;28;19963;-77
2023/07/16 02:43:15;;;;;;;;;;;;;;;23.74;100.00;99496.78;5073073;28;19942;-78
2023/07/16 02:45:40;;;;;;;;;;;;;;;23.73;100.00;99499.75;5073777;28;19961;-78
2023/07/16 02:48:06;;;;;;;;;;;;;;;23.65;100.00;99501.69;5073557;28;20009;-78
2023/07/16 02:50:37;;;;;;;;;;;;;;;23.65;100.00;99506.25;5073581;28;19924;-78
2023/07/16 02:53:04;;;;;;;;;;;;;;;23.55;100.00;99503.31;5067979;28;20007;-79
2023/07/16 02:55:29;;;;;;;;;;;;;;;23.51;100.00;99491.31;5072846;28;19917;-78
2023/07/16 02:57:55;;;;;;;;;;;;;;;23.48;100.00;99502.56;5073029;28;19923;-78
2023/07/16 03:00:21;;;;;;;;;;;;;;;23.50;100.00;99497.78;5073258;28;19954;-78
2023/07/16 03:02:46;;;;;;;;;;;;;;;23.49;100.00;99504.22;5072802;28;20024;-77
2023/07/16 03:05:12;;;;;;;;;;;;;;;23.38;100.00;99507.66;5073724;28;19927;-79
2023/07/16 03:07:37;;;;;;;;;;;;;;;23.36;100.00;99507.03;5072924;28;19923;-79
2023/07/16 03:10:03;;;;;;;;;;;;;;;23.42;100.00;99503.44;5073667;28;20426;-79
2023/07/16 03:12:29;;;;;;;;;;;;;;;23.46;100.00;99510.00;5073422;28;19916;-79
2023/07/16 03:14:54;;;;;;;;;;;;;;;23.49;100.00;99502.34;5073007;28;19916;-79
2023/07/16 03:17:21;;;;;;;;;;;;;;;23.55;100.00;99503.31;5069360;28;20402;-79
2023/07/16 03:19:46;;;;;;;;;;;;;;;23.60;100.00;99503.44;5073540;28;20007;-78
2023/07/16 03:22:11;;;;;;;;;;;;;;;23.66;100.00;99505.22;5074145;28;19955;-78
2023/07/16 03:24:37;;;;;;;;;;;;;;;23.68;100.00;99505.78;5073435;28;19995;-78
2023/07/16 03:27:03;;;;;;;;;;;;;;;23.70;100.00;99501.00;5072742;28;20319;-78
2023/07/16 03:29:28;;;;;;;;;;;;;;;23.72;100.00;99509.69;5069394;28;19923;-77
2023/07/16 03:31:54;;;;;;;;;;;;;;;23.72;100.00;99509.69;5078743;28;19919;-78
2023/07/16 03:34:21;;;;;;;;;;;;;;;23.74;100.00;99507.56;5079945;28;19974;-77
2023/07/16 03:36:46;;;;;;;;;;;;;;;23.77;100.00;99506.31;5079803;28;19920;-78
2023/07/16 03:39:12;;;;;;;;;;;;;;;23.77;100.00;99517.09;5080317;28;20253;-77
2023/07/16 03:41:37;;;;;;;;;;;;;;;23.68;100.00;99519.25;5080783;28;19923;-78
2023/07/16 03:44:03;;;;;;;;;;;;;;;23.71;100.00;99518.81;5079388;28;19923;-78
2023/07/16 03:46:31;;;;;;;;;;;;;;;23.62;100.00;99520.19;5079395;28;19923;-76
2023/07/16 03:48:57;;;;;;;;;;;;;;;23.54;100.00;99517.81;5078592;28;19916;-77
2023/07/16 03:51:22;;;;;;;;;;;;;;;23.50;100.00;99516.63;5077883;28;19916;-76
2023/07/16 03:53:48;;;;;;;;;;;;;;;23.47;100.00;99522.47;5078983;28;19971;-77
2023/07/16 03:56:13;;;;;;;;;;;;;;;23.46;100.00;99524.31;5079160;28;19916;-77
2023/07/16 03:58:39;;;;;;;;;;;;;;;23.42;100.00;99524.97;5077521;28;19928;-77
2023/07/16 04:01:05;;;;;;;;;;;;;;;23.38;100.00;99529.19;5076789;28;20291;-77
2023/07/16 04:03:30;;;;;;;;;;;;;;;23.13;100.00;99537.34;5072639;28;19970;-77
2023/07/16 04:06:06;;;;;;;;;;;;;;;23.10;100.00;99535.91;5071610;28;19920;-77
2023/07/16 04:08:32;;;;;;;;;;;;;;;23.09;100.00;99547.72;5072061;28;19961;-75
2023/07/16 04:10:57;;;;;;;;;;;;;;;23.06;100.00;99548.19;5071812;28;19916;-77
2023/07/16 04:13:24;;;;;;;;;;;;;;;23.09;100.00;99546.91;5069497;28;20000;-77
2023/07/16 04:15:49;;;;;;;;;;;;;;;23.18;100.00;99543.69;5071085;28;20329;-78
2023/07/16 04:18:15;;;;;;;;;;;;;;;23.19;100.00;99548.03;5071447;28;20342;-76
2023/07/16 04:20:40;;;;;;;;;;;;;;;23.13;100.00;99557.00;5071438;28;19945;-78
2023/07/16 04:23:06;;;;;;;;;;;;;;;23.17;100.00;99550.13;5071525;28;20046;-78
2023/07/16 04:25:31;;;;;;;;;;;;;;;23.21;100.00;99551.31;5071104;28;19924;-79
2023/07/16 04:27:57;;;;;;;;;;;;;;;23.23;100.00;99553.78;5070841;28;19916;-78
2023/07/16 04:30:22;;;;;;;;;;;;;;;23.28;100.00;99562.81;5071252;28;20059;-77
2023/07/16 04:32:48;;;;;;;;;;;;;;;23.25;100.00;99565.16;5071144;28;19916;-78
2023/07/16 04:35:13;;;;;;;;;;;;;;;23.28;100.00;99560.13;5070958;28;19985;-78
2023/07/16 04:37:39;;;;;;;;;;;;;;;23.42;100.00;99558.13;5070013;28;19916;-78
2023/07/16 04:40:04;;;;;;;;;;;;;;;23.42;100.00;99562.69;5070663;28;19920;-79
2023/07/16 04:42:30;;;;;;;;;;;;;;;23.46;100.00;99563.88;5070736;28;20003;-79
2023/07/16 04:44:55;;;;;;;;;;;;;;;23.52;100.00;99569.22;5070787;28;19916;-77
2023/07/16 04:47:21;;;;;;;;;;;;;;;23.53;100.00;99568.16;5071070;28;19935;-78
2023/07/16 04:49:46;;;;;;;;;;;;;;;23.67;100.00;99577.75;5070991;28;19926;-78
2023/07/16 04:52:12;;;;;;;;;;;;;;;23.68;100.00;99573.13;5070578;28;19920;-79
2023/07/16 04:54:38;;;;;;;;;;;;;;;23.67;100.00;99577.75;5070858;28;19916;-77
2023/07/16 04:57:04;;;;;;;;;;;;;;;23.69;100.00;99574.78;5070613;28;20608;-77
2023/07/16 04:59:30;;;;;;;;;;;;;;;23.73;100.00;99586.78;5070883;28;19912;-77
2023/07/16 05:01:55;;;;;;;;;;;;;;;23.80;100.00;99589.41;5066593;28;20054;-79
2023/07/16 05:04:20;;;;;;;;;;;;;;;23.86;100.00;99588.44;5069122;28;19923;-77
2023/07/16 05:06:46;;;;;;;;;;;;;;;23.87;100.00;99590.94;5070657;28;19916;-78
2023/07/16 05:09:11;;;;;;;;;;;;;;;23.91;100.00;99594.84;5070142;28;19917;-78
2023/07/16 05:11:38;;;;;;;;;;;;;;;23.92;100.00;99582.97;5069124;28;20021;-77
2023/07/16 05:14:03;;;;;;;;;;;;;;;23.95;100.00;99585.22;5070350;28;19919;-76
2023/07/16 05:16:28;;;;;;;;;;;;;;;23.98;100.00;99584.75;5070396;28;19916;-77
2023/07/16 05:18:54;;;;;;;;;;;;;;;23.99;100.00;99583.72;5068651;28;19966;-76
2023/07/16 05:21:19;;;;;;;;;;;;;;;23.96;100.00;99584.19;5070343;28;19924;-76
2023/07/16 05:23:45;;;;;;;;;;;;;;;23.90;100.00;99587.78;5056510;28;19995;-76
2023/07/16 05:26:10;;;;;;;;;;;;;;;23.76;100.00;99588.19;5069301;28;19963;-78
2023/07/16 05:28:36;;;;;;;;;;;;;;;23.74;100.00;99587.59;5068700;28;19927;-77
2023/07/16 05:31:02;;;;;;;;;;;;;;;23.70;100.00;99586.41;5069084;28;19916;-77
2023/07/16 05:33:27;;;;;;;;;;;;;;;23.66;100.00;99591.44;5070006;28;19957;-77
2023/07/16 05:35:53;;;;;;;;;;;;;;;23.69;100.00;99585.56;5069832;28;19923;-77
2023/07/16 05:38:18;;;;;;;;;;;;;;;23.76;100.00;99591.69;5069550;28;19923;-77
2023/07/16 05:40:44;;;;;;;;;;;;;;;23.84;100.00;99588.69;5069793;28;19916;-78
2023/07/16 05:43:09;;;;;;;;;;;;;;;23.87;100.00;99593.63;5069169;28;19924;-80
2023/07/16 05:45:35;;;;;;;;;;;;;;;23.95;100.00;99596.00;5053652;22;20027;-78
2023/07/16 05:48:00;;;;;;;;;;;;;;;24.00;100.00;99593.44;5028265;28;19916;-78
2023/07/16 05:50:25;;;;;;;;;;;;;;;24.07;100.00;99588.78;5029359;28;19921;-78
2023/07/16 05:52:51;;;;;;;;;;;;;;;24.10;100.00;99598.28;5029223;28;20273;-77
2023/07/16 05:55:17;;;;;;;;;;;;;;;24.18;100.00;99605.22;5029090;28;20396;-77
2023/07/16 05:57:42;;;;;;;;;;;;;;;24.24;100.00;99605.16;5031012;28;19917;-78
2023/07/16 06:00:08;;;;;;;;;;;;;;;24.30;100.00;99604.25;5029732;28;19923;-79
2023/07/16 06:02:37;;;;;;;;;;;;;;;24.38;100.00;99603.94;5027528;28;19917;-79
2023/07/16 06:05:02;;;;;;;;;;;;;;;24.40;100.00;99604.50;5030133;28;19917;-78
2023/07/16 06:07:27;;;;;;;;;;;;;;;24.42;100.00;99610.50;5028249;28;19913;-78
2023/07/16 06:09:53;;;;;;;;;;;;;;;24.51;100.00;99610.13;5027500;28;20331;-79
2023/07/16 06:12:18;;;;;;;;;;;;;;;24.60;100.00;99606.91;5033836;28;19920;-78
2023/07/16 06:14:43;;;;;;;;;;;;;;;24.67;100.00;99599.53;5027342;28;20003;-79
2023/07/16 06:17:09;;;;;;;;;;;;;;;24.73;100.00;99603.97;5029099;28;19979;-81
2023/07/16 06:19:34;;;;;;;;;;;;;;;24.80;100.00;99604.66;5034405;28;19967;-81
2023/07/16 06:22:00;;;;;;;;;;;;;;;24.81;100.00;99595.53;5029843;28;19917;-81
2023/07/16 06:24:25;;;;;;;;;;;;;;;24.85;100.00;99607.50;5030549;28;19940;-81
2023/07/16 06:26:50;;;;;;;;;;;;;;;24.93;100.00;99602.84;5028783;28;19913;-81
2023/07/16 06:29:16;;;;;;;;;;;;;;;25.00;100.00;99608.94;5031096;28;20016;-81
2023/07/16 06:31:53;;;;;;;;;;;;;;;25.04;100.00;99599.31;5030483;28;19920;-80
2023/07/16 06:34:19;;;;;;;;;;;;;;;25.05;100.00;99611.75;5029426;28;19925;-80
2023/07/16 06:36:44;;;;;;;;;;;;;;;25.10;100.00;99614.56;5028813;28;19917;-80
2023/07/16 06:39:09;;;;;;;;;;;;;;;25.14;100.00;99619.28;5026347;28;19979;-81
2023/07/16 06:41:34;;;;;;;;;;;;;;;25.22;100.00;99620.78;5027838;28;19970;-82
2023/07/16 06:44:00;;;;;;;;;;;;;;;25.29;100.00;99624.19;5025650;28;19917;-81
2023/07/16 06:46:25;;;;;;;;;;;;;;;25.34;100.00;99621.59;5025316;28;19925;-81
2023/07/16 06:48:50;;;;;;;;;;;;;;;25.37;100.00;99620.31;5030989;28;20012;-81
2023/07/16 06:51:16;;;;;;;;;;;;;;;25.40;100.00;99619.81;5030002;28;20349;-81
2023/07/16 06:53:41;;;;;;;;;;;;;;;25.46;100.00;99625.09;5028044;28;20067;-82
2023/07/16 06:56:06;;;;;;;;;;;;;;;25.56;100.00;99614.56;5027491;28;19944;-82
2023/07/16 06:58:33;;;;;;;;;;;;;;;25.64;100.00;99611.47;5027447;28;19924;-82
2023/07/16 07:00:58;;;;;;;;;;;;;;;25.69;100.00;99616.16;5028042;28;19917;-80
2023/07/16 07:03:23;;;;;;;;;;;;;;;25.72;100.00;99614.84;5025603;28;20365;-80
2023/07/16 07:05:49;;;;;;;;;;;;;;;25.77;100.00;99610.38;5027856;28;20281;-82
2023/07/16 07:08:14;;;;;;;;;;;;;;;25.83;100.00;99611.28;5029870;28;20328;-79
2023/07/16 07:10:40;;;;;;;;;;;;;;;25.88;100.00;99606.81;5029423;28;19932;-81
2023/07/16 07:13:06;;;;;;;;;;;;;;;25.92;100.00;99607.16;5028152;28;19924;-90
2023/07/16 07:15:31;;;;;;;;;;;;;;;25.95;100.00;99617.47;5029304;28;19925;-81
2023/07/16 07:17:56;;;;;;;;;;;;;;;25.98;100.00;99614.28;5026940;28;19924;-82
2023/07/16 07:20:22;;;;;;;;;;;;;;;26.04;100.00;99613.31;5026499;28;19920;-86
2023/07/16 07:22:47;;;;;;;;;;;;;;;26.18;100.00;99619.25;5029974;28;19921;-85
2023/07/16 07:25:12;;;;;;;;;;;;;;;26.26;100.00;99614.31;5024569;28;19924;-83
2023/07/16 07:27:38;;;;;;;;;;;;;;;26.36;100.00;99614.50;5027280;28;19916;-83
2023/07/16 07:30:03;;;;;;;;;;;;;;;26.49;100.00;99618.78;5029849;28;19932;-86
2023/07/16 07:32:29;;;;;;;;;;;;;;;26.57;100.00;99621.06;5028503;28;19927;-87
2023/07/16 07:34:54;;;;;;;;;;;;;;;26.64;100.00;99623.63;5029832;28;19928;-84
2023/07/16 07:37:19;;;;;;;;;;;;;;;26.70;100.00;99625.34;5029164;28;19917;-84
2023/07/16 07:39:47;;;;;;;;;;;;;;;26.76;100.00;99619.75;5023932;28;19932;-87
2023/07/16 07:42:13;;;;;;;;;;;;;;;26.82;100.00;99623.38;5029862;28;20011;-84
2023/07/16 07:44:38;;;;;;;;;;;;;;;26.88;100.00;99617.81;5026987;28;20328;-85
2023/07/16 07:47:04;;;;;;;;;;;;;;;26.95;100.00;99623.06;5027380;28;19917;-84
2023/07/16 07:49:29;;;;;;;;;;;;;;;27.01;100.00;99616.66;5032555;28;20395;-85
2023/07/16 07:51:55;;;;;;;;;;;;;;;27.06;100.00;99622.16;5027729;28;19917;-85
2023/07/16 07:54:20;;;;;;;;;;;;;;;27.14;100.00;99624.47;5028748;28;20373;-85
2023/07/16 07:56:46;;;;;;;;;;;;;;;27.21;100.00;99619.69;5028863;28;19959;-83
2023/07/16 07:59:11;;;;;;;;;;;;;;;27.27;100.00;99618.66;5023298;28;19983;-81
2023/07/16 08:01:37;;;;;;;;;;;;;;;27.25;100.00;99628.13;5029584;28;19917;-82
2023/07/16 08:04:02;;;;;;;;;;;;;;;27.32;100.00;99633.38;5024335;28;19917;-81
2023/07/16 08:06:27;;;;;;;;;;;;;;;27.37;100.00;99625.31;5027559;28;20020;-86
2023/07/16 08:08:53;;;;;;;;;;;;;;;27.46;100.00;99618.38;5031099;28;20404;-87
2023/07/16 08:11:18;;;;;;;;;;;;;;;27.52;100.00;99629.06;5028046;28;19924;-86
2023/07/16 08:13:43;;;;;;;;;;;;;;;27.54;100.00;99626.09;5025619;28;20243;-89
2023/07/16 08:16:09;;;;;;;;;;;;;;;27.58;100.00;99627.22;5027339;28;19928;-84
2023/07/16 08:18:35;;;;;;;10.90;6.00;;;;;;;27.62;100.00;99628.41;5023230;28;19943;-88
2023/07/16 08:21:00;;;;;;;10.18;5.60;;;;;;;27.65;100.00;99623.28;5032239;28;20029;-86
2023/07/16 08:23:26;;;;;;;14.73;5.95;;;;;;;27.67;100.00;99625.75;5024313;28;20026;-87
2023/07/16 08:25:51;;;;;;;9.40;6.38;;;;;;;27.73;100.00;99621.19;5026393;28;20378;-88
2023/07/16 08:28:17;;;;;;;8.52;6.18;;;;;;;27.80;100.00;99619.94;5027210;28;20022;-86
2023/07/16 08:30:42;;;;;;;7.75;6.53;;;;;;;27.89;100.00;99623.84;5024443;28;20028;-87
2023/07/16 08:33:08;;;;;;;8.13;6.20;;;;;;;27.97;100.00;99620.69;5028361;28;20023;-87
2023/07/16 08:35:34;;;;;;;8.50;6.20;;;;;;;28.03;100.00;99621.56;5022537;28;20073;-86
2023/07/16 08:37:59;;;;;;;9.60;6.40;;;;;;;28.06;100.00;99613.72;5023143;28;19921;-86
2023/07/16 08:40:27;;;;;;;9.52;6.10;;;;;;;28.18;100.00;99615.47;5026377;28;20362;-86
2023/07/16 08:42:53;;;;;;;6.53;5.80;;;;;;;28.27;100.00;99619.38;5025198;28;20398;-84
2023/07/16 08:45:21;;;;;;;8.70;5.73;;;;;;;28.36;100.00;99623.25;5024735;28;20042;-83
2023/07/16 08:47:46;;;;;;;6.35;5.57;;;;;;;28.41;100.00;99621.41;5024604;28;20030;-83
2023/07/16 08:50:12;;;;;;;11.60;5.50;;;;;;;28.45;100.00;99611.66;5032832;28;20005;-84
2023/07/16 08:52:39;;;;;;;8.00;6.00;;;;;;;28.47;100.00;99609.53;5039510;28;20332;-83
2023/07/16 08:55:05;;;;;;;7.90;5.35;;;;;;;28.53;100.00;99618.53;5028008;28;20039;-82
2023/07/16 08:57:32;;;;;;;10.40;5.47;;;;;;;28.58;100.00;99621.28;5023370;28;19924;-83
2023/07/16 08:59:58;;;;;;;7.80;5.90;;;;;;;28.62;100.00;99610.75;5025812;28;20123;-84
2023/07/16 09:02:23;;;;;;;8.35;5.60;;;;;;;28.70;100.00;99619.22;5026316;28;20076;-84
2023/07/16 09:04:53;;;;;;;8.50;5.75;;;;;;;28.71;100.00;99615.44;5027963;28;20116;-83
2023/07/16 09:07:18;;;;;;;;;;;;;;;28.75;100.00;99627.44;5025664;28;20041;-83
2023/07/16 09:09:54;;;;;;;;;;;;;;;28.79;100.00;99628.56;5027083;28;20289;-82
2023/07/16 09:12:23;;;;;;;;;;;;;;;28.87;100.00;99630.78;5023569;28;20349;-84
2023/07/16 09:14:48;;;;;;;;;;;;;;;28.97;100.00;99619.19;5026076;28;19925;-84
2023/07/16 09:17:19;;;;;;;;;;;;;;;28.98;100.00;99623.56;5033621;28;20289;-84
2023/07/16 09:19:45;;;;;;;;;;;;;;;29.05;100.00;99620.59;5032870;28;19921;-84
2023/07/16 09:22:11;;;;;;;;;;;;;;;29.05;100.00;99621.41;5027194;28;19933;-84
2023/07/16 09:24:36;;;;;;;;;;;;;;;28.92;100.00;99622.66;5025407;28;19921;-83
2023/07/16 09:27:01;;;;;;;;;;;;;;;28.99;100.00;99616.19;5023424;28;19921;-82
2023/07/16 09:29:27;;;;;;;;;;;;;;;29.05;100.00;99624.13;5027857;28;19921;-83
2023/07/16 09:31:57;;;;;;;;;;;;;;;29.04;100.00;99624.41;5023719;28;19990;-83
2023/07/16 09:34:23;;;;;;;;;;;;;;;29.12;100.00;99623.91;5025981;28;19925;-82
2023/07/16 09:36:51;;;;;;;;;;;;;;;29.18;100.00;99625.56;5025615;28;19967;-83
2023/07/16 09:39:16;;;;;;;;;;;;;;;29.24;100.00;99624.53;5022377;28;19922;-83
2023/07/16 09:41:42;;;;;;;;;;;;;;;29.27;100.00;99624.00;5018307;28;19964;-83
2023/07/16 09:44:08;;;;;;;;;;;;;;;29.29;100.00;99621.81;5024289;28;19975;-82
2023/07/16 09:46:34;;;;;;;;;;;;;;;29.34;100.00;99619.16;5024220;28;19974;-83
2023/07/16 09:48:59;;;;;;;;;;;;;;;29.42;100.00;99620.56;5030770;28;19928;-83
2023/07/16 09:51:25;;;;;;;;;;;;;;;29.50;100.00;99617.38;5026273;28;20347;-84
2023/07/16 09:53:52;;;;;;;;;;;;;;;29.57;100.00;99620.66;5025391;28;19928;-84
2023/07/16 09:56:19;;;;;;;8.95;5.28;;;;;;;29.57;100.00;99624.16;5022637;28;20398;-84
2023/07/16 09:58:45;;;;;;;6.78;5.13;;;;;;;29.58;100.00;99625.81;5022058;28;20486;-83
2023/07/16 10:01:11;;;;;;;8.40;4.78;;;;;;;29.58;100.00;99620.38;5024846;28;20132;-82
2023/07/16 10:03:36;;;;;;;8.35;4.93;;;;;;;29.61;99.59;99625.31;5024889;28;20034;-83
2023/07/16 10:06:06;;;;;;;6.15;4.88;;;;;;;29.64;98.56;99618.50;5023696;28;20121;-83
2023/07/16 10:08:34;;;;;;;8.60;5.25;;;;;;;29.67;99.03;99617.97;5022214;28;20030;-83
2023/07/16 10:11:00;;;;;;;11.40;5.65;;;;;;;29.70;99.37;99618.25;5024987;28;20127;-83
2023/07/16 10:13:26;;;;;;;7.40;4.82;;;;;;;29.75;99.65;99612.00;5025451;28;20462;-83
2023/07/16 10:15:54;;;;;;;7.55;5.72;;;;;;;29.84;97.96;99612.31;5024385;28;20094;-84
2023/07/16 10:18:30;;;;;;;8.40;5.70;;;;;;;29.85;97.40;99616.69;5022623;28;20057;-84
2023/07/16 10:21:08;;;;;;;10.13;5.30;;;;;;;29.89;97.85;99609.63;5031108;28;20038;-82
2023/07/16 10:23:41;;;;;;;6.60;5.18;;;;;;;29.92;97.66;99614.56;5037254;28;20377;-83
2023/07/16 10:26:09;;;;;;;11.68;5.00;;;;;;;29.98;97.83;99608.06;5006617;28;20065;-83
2023/07/16 10:28:35;;;;;;;6.95;5.28;;;;;;;30.01;96.18;99602.06;5037828;28;20044;-83
2023/07/16 10:31:01;;;;;;;10.35;5.32;;;;;;;30.06;96.14;99599.34;5039838;28;20033;-83
2023/07/16 10:33:26;;;;;;;9.43;5.20;;;;;;;30.11;96.22;99600.19;5019007;28;20034;-83
2023/07/16 10:35:53;;;;;;;6.95;5.25;;;;;;;30.20;96.51;99599.66;5027478;28;20061;-83
2023/07/16 10:38:18;;;;;;;7.35;5.07;;;;;;;30.24;97.17;99596.13;5021875;28;20071;-84
2023/07/16 10:40:45;;;;;;;7.60;4.97;;;;;;;30.29;95.52;99596.13;5028596;28;20116;-83
2023/07/16 10:43:14;;;;;;;13.57;5.53;;;;;;;30.31;94.21;99591.22;5029682;28;20025;-84
2023/07/16 10:45:39;;;;;;;6.10;5.57;;;;;;;30.40;91.93;99595.03;5026926;28;20099;-84
2023/07/16 10:48:06;;;;;;;6.22;5.03;;;;;;;30.44;93.21;99593.44;5027038;28;20061;-84
2023/07/16 10:50:32;;;;;;;;;;;;;;;30.50;89.31;99595.09;5034499;28;20061;-83
2023/07/16 10:52:57;;;;;;;;;;;;;;;30.55;90.32;99591.56;5027983;28;19999;-83
2023/07/16 10:55:23;;;;;;;;;;;;;;;30.58;90.31;99590.16;5031652;28;20015;-82
2023/07/16 10:57:49;;;;;;;;;;;;;;;30.63;89.98;99590.19;5027065;28;20471;-83
2023/07/16 11:00:15;;;;;;;;;;;;;;;30.64;89.28;99583.63;5032109;28;19913;-83
2023/07/16 11:02:41;;;;;;;;;;;;;;;30.64;88.61;99589.09;5028608;28;20360;-85
2023/07/16 11:05:09;;;;;;;;;;;;;;;30.63;88.71;99571.13;5027228;28;19979;-82
2023/07/16 11:07:34;;;;;;;;;;;;;;;30.65;87.53;99574.38;5030093;28;19913;-82
2023/07/16 11:10:02;;;;;;;;;;;;;;;30.65;87.34;99575.19;5029288;28;19923;-82
2023/07/16 11:12:28;;;;;;;;;;;;;;;30.72;86.85;99569.47;5027332;28;19917;-82
2023/07/16 11:14:54;;;;;;;;;;;;;;;30.71;86.16;99573.28;5027987;28;19924;-83
2023/07/16 11:17:20;;;;;;;;;;;;;;;30.70;86.79;99571.66;5026812;28;20440;-83
2023/07/16 11:19:46;;;;;;;;;;;;;;;30.71;87.50;99567.84;5028932;28;19994;-83
2023/07/16 11:22:11;;;;;;;;;;;;;;;30.71;87.29;99568.66;5030870;28;20408;-83
2023/07/16 11:24:44;;;;;;;;;;;;;;;30.77;87.01;99566.75;5028211;28;19913;-81
2023/07/16 11:27:17;;;;;;;;;;;;;;;30.82;86.97;99569.44;5027538;28;19931;-82
2023/07/16 11:29:52;;;;;;;;;;;;;;;30.85;86.97;99568.91;5026859;28;19917;-83
2023/07/16 11:32:29;;;;;;;;;;;;;;;30.92;87.08;99569.47;5028411;28;19913;-84
2023/07/16 11:34:55;;;;;;;;;;;;;;;31.00;86.61;99568.88;5025455;28;19924;-83
2023/07/16 11:37:21;;;;;;;;;;;;;;;31.11;85.42;99562.34;5027356;28;20000;-83
2023/07/16 11:39:48;;;;;;;;;;;;;;;31.18;85.09;99567.50;5023014;28;19925;-82
2023/07/16 11:42:13;;;;;;;;;;;;;;;31.27;84.04;99561.22;5027556;28;19921;-83
2023/07/16 11:44:38;;;;;;;;;;;;;;;31.38;83.35;99567.44;5027550;28;19928;-82
2023/07/16 11:47:04;;;;;;;;;;;;;;;31.46;82.33;99557.84;5027005;28;19917;-82
2023/07/16 11:49:29;;;;;;;;;;;;;;;31.52;82.51;99559.47;5029865;28;20008;-84
2023/07/16 11:51:55;;;;;;;;;;;;;;;31.57;82.76;99548.56;5029785;28;20012;-82
2023/07/16 11:54:20;;;;;;;;;;;;;;;31.65;82.04;99550.69;5028392;28;19925;-84
2023/07/16 11:56:47;;;;;;;;;;;;;;;31.75;82.43;99550.66;5032406;28;20283;-83
2023/07/16 11:59:12;;;;;;;;;;;;;;;31.84;81.99;99556.34;5027780;28;19923;-84
2023/07/16 12:01:38;;;;;;;;;;;;;;;31.91;81.06;99549.47;5024456;28;19917;-83
2023/07/16 12:04:03;;;;;;;;;;;;;;;31.89;79.67;99546.19;5025208;28;19921;-83
2023/07/16 12:06:28;;;;;;;;;;;;;;;31.88;80.70;99544.56;5023905;28;19924;-82
2023/07/16 12:08:55;;;;;;;;;;;;;;;31.91;80.54;99545.94;5028308;28;19963;-83
2023/07/16 12:11:20;;;;;;;;;;;;;;;31.89;81.02;99546.19;5028755;28;19924;-82
2023/07/16 12:13:46;;;;;;;;;;;;;;;31.88;81.03;99546.47;5026757;28;19917;-82
2023/07/16 12:16:11;;;;;;;;;;;;;;;31.91;81.49;99543.19;5027266;28;20032;-84
2023/07/16 12:18:36;;;;;;;;;;;;;;;31.89;80.48;99546.19;5021154;28;19944;-84
2023/07/16 12:21:02;;;;;;;;;;;;;;;31.93;79.32;99544.53;5031885;28;19913;-80